Time;durP1;ratioP1;P1;durP2;ratioP2;P2;SDS_P1;SDS_P2;PMS_P1;PMS_P2;Temp;Humidity;BMP_temperature;BMP_pressure;BME280_temperature;BME280_humidity;BME280_pressure;Samples;Min_cycle;Max_cycle;Signal;HPM_P1;HPM_P2
2022/03/12 00:03:54;;;;;;;107.93;40.13;;;;;;;-6.43;47.36;100640.00;4045548;86;21799;-78
2022/03/12 00:09:56;;;;;;;120.33;40.67;;;;;;;-6.73;46.27;100636.80;4033087;87;21060;-79
2022/03/12 00:15:59;;;;;;;118.80;42.50;;;;;;;-6.85;46.59;100641.77;4032200;86;21042;-78
2022/03/12 00:22:03;;;;;;;133.97;42.77;;;;;;;-6.87;48.02;100634.00;4033188;87;21474;-80
2022/03/12 00:28:05;;;;;;;150.60;48.67;;;;;;;-6.78;47.93;100631.33;4037168;86;21015;-79
2022/03/12 00:34:07;;;;;;;134.90;48.60;;;;;;;-6.73;47.17;100634.64;4032068;87;21889;-79
2022/03/12 00:40:09;;;;;;;111.47;37.23;;;;;;;-6.78;48.09;100622.00;4034653;87;21636;-79
2022/03/12 00:46:12;;;;;;;110.20;41.37;;;;;;;-6.78;53.98;100618.01;4035269;86;21001;-79
2022/03/12 00:52:13;;;;;;;119.50;44.17;;;;;;;-6.86;50.06;100607.66;4034266;87;21025;-79
2022/03/12 00:58:16;;;;;;;124.17;45.93;;;;;;;-6.90;50.19;100611.81;4033385;87;21060;-79
2022/03/12 01:04:17;;;;;;;111.70;41.47;;;;;;;-6.96;50.29;100622.03;4047210;86;21009;-79
2022/03/12 01:10:18;;;;;;;106.80;40.57;;;;;;;-6.96;49.94;100619.36;4049818;86;20994;-79
2022/03/12 01:16:21;;;;;;;118.73;40.03;;;;;;;-7.11;49.76;100619.44;4050084;86;21094;-79
2022/03/12 01:22:26;;;;;;;112.73;39.53;;;;;;;-7.22;49.36;100623.62;4048920;86;21053;-79
2022/03/12 01:28:26;;;;;;;140.83;50.20;;;;;;;-7.26;49.36;100614.97;4049318;86;21874;-80
2022/03/12 01:34:27;;;;;;;131.63;47.37;;;;;;;-7.18;49.92;100612.02;4049636;86;21050;-81
2022/03/12 01:40:29;;;;;;;146.77;49.37;;;;;;;-7.21;50.29;100615.12;4051619;86;21120;-80
2022/03/12 01:46:34;;;;;;;122.63;43.10;;;;;;;-7.20;50.70;100602.11;4051600;86;21102;-80
2022/03/12 01:52:37;;;;;;;130.55;44.35;;;;;;;-7.16;50.70;100609.45;4044065;86;21470;-79
2022/03/12 01:58:48;;;;;;;105.90;37.90;;;;;;;-7.18;51.45;100611.52;4048207;86;21030;-79
2022/03/12 02:04:51;;;;;;;85.70;30.73;;;;;;;-7.14;51.96;100613.23;4055749;86;21045;-79
2022/03/12 02:10:57;;;;;;;86.67;31.67;;;;;;;-7.22;51.30;100590.89;4063894;86;21123;-79
2022/03/12 02:17:06;;;;;;;99.07;37.17;;;;;;;-7.33;51.79;100584.97;4062913;86;21390;-79
2022/03/12 02:23:09;;;;;;;99.90;37.07;;;;;;;-7.31;53.45;100570.94;4066946;86;21052;-79
2022/03/12 02:29:18;;;;;;;112.13;38.70;;;;;;;-7.28;54.13;100573.95;4062070;86;21113;-79
2022/03/12 02:35:19;;;;;;;103.23;37.00;;;;;;;-7.34;53.04;100584.15;4066510;85;21029;-79
2022/03/12 02:41:23;;;;;;;115.67;41.83;;;;;;;-7.50;53.78;100580.73;4063033;86;22011;-79
2022/03/12 02:47:31;;;;;;;122.67;44.70;;;;;;;-7.62;53.25;100582.48;4063798;86;22212;-79
2022/03/12 02:53:33;;;;;;;125.33;45.23;;;;;;;-7.74;53.09;100580.77;4066705;86;21047;-79
2022/03/12 02:59:34;;;;;;;123.17;43.33;;;;;;;-7.82;53.34;100576.55;4062311;86;21030;-79
2022/03/12 03:05:46;;;;;;;120.43;44.60;;;;;;;-7.92;54.12;100574.88;4048438;86;21068;-79
2022/03/12 03:11:52;;;;;;;110.43;39.73;;;;;;;-8.00;53.99;100582.33;4033872;87;21038;-79
2022/03/12 03:17:52;;;;;;;135.83;51.03;;;;;;;-8.26;53.42;100578.04;4035453;87;21812;-79
2022/03/12 03:23:54;;;;;;;123.27;45.47;;;;;;;-8.44;53.77;100581.95;4032259;87;21120;-79
2022/03/12 03:29:55;;;;;;;108.97;39.53;;;;;;;-8.48;54.36;100584.72;4034025;86;21060;-79
2022/03/12 03:35:57;;;;;;;113.70;42.77;;;;;;;-8.38;59.18;100571.26;4033325;87;21030;-79
2022/03/12 03:41:58;;;;;;;122.07;45.10;;;;;;;-8.38;56.75;100582.42;4037024;86;21042;-79
2022/03/12 03:47:59;;;;;;;117.87;43.73;;;;;;;-8.35;56.06;100572.69;4032215;87;21030;-79
2022/03/12 03:54:02;;;;;;;128.57;42.50;;;;;;;-8.51;56.37;100583.31;4035434;86;21057;-79
2022/03/12 04:00:06;;;;;;;117.47;41.17;;;;;;;-8.58;56.53;100585.71;4017879;87;21117;-79
2022/03/12 04:06:10;;;;;;;111.97;37.40;;;;;;;-8.63;55.72;100587.65;4038716;86;21137;-79
2022/03/12 04:12:12;;;;;;;89.10;34.53;;;;;;;-8.71;56.48;100569.34;4042930;86;21164;-79
2022/03/12 04:18:18;;;;;;;97.47;36.63;;;;;;;-8.63;58.19;100573.58;4045043;86;21041;-79
2022/03/12 04:24:22;;;;;;;96.97;34.67;;;;;;;-8.56;56.80;100563.22;4045187;86;21046;-79
2022/03/12 04:30:23;;;;;;;93.17;33.40;;;;;;;-8.51;57.41;100563.39;4046878;86;21774;-79
2022/03/12 04:36:26;;;;;;;96.80;33.23;;;;;;;-8.47;56.96;100572.55;4048543;86;21952;-79
2022/03/12 04:42:27;;;;;;;88.70;33.87;;;;;;;-8.52;57.19;100564.41;4048297;86;21554;-79
2022/03/12 04:48:32;;;;;;;89.07;30.33;;;;;;;-8.58;56.73;100571.11;4048827;86;21151;-79
2022/03/12 04:54:34;;;;;;;90.37;32.20;;;;;;;-8.64;57.45;100564.80;4044468;86;21121;-79
2022/03/12 05:00:40;;;;;;;84.70;30.93;;;;;;;-8.61;57.49;100556.40;4044195;86;21046;-80
2022/03/12 05:06:43;;;;;;;81.50;30.30;;;;;;;-8.56;58.48;100549.94;4037681;86;21077;-79
2022/03/12 05:12:51;;;;;;;74.17;29.83;;;;;;;-8.52;58.73;100545.02;4038369;86;21077;-79
2022/03/12 05:18:57;;;;;;;73.97;28.90;;;;;;;-8.43;59.03;100549.05;4034430;86;21014;-78
2022/03/12 05:24:57;;;;;;;84.62;31.70;;;;;;;-8.35;59.06;100554.09;4032249;87;21056;-80
2022/03/12 05:31:04;;;;;;;79.13;28.93;;;;;;;-8.44;59.29;100552.73;4046477;86;21111;-79
2022/03/12 05:37:19;;;;;;;85.57;31.10;;;;;;;-8.42;59.16;100555.97;4034880;86;21058;-80
2022/03/12 05:43:15;;;;;;;90.00;31.97;;;;;;;-8.24;59.85;100560.84;4028348;86;21057;-78
2022/03/12 05:49:16;;;;;;;64.15;24.30;;;;;;;-8.13;60.59;100559.33;4033117;86;21070;-79
2022/03/12 05:55:22;;;;;;;84.00;31.47;;;;;;;-7.98;60.74;100558.47;4032825;86;21965;-79
2022/03/12 06:01:23;;;;;;;89.37;34.57;;;;;;;-7.79;61.15;100561.48;4033439;86;21522;-81
2022/03/12 06:07:27;;;;;;;100.07;36.07;;;;;;;-7.53;61.70;100564.41;4041351;86;21080;-79
2022/03/12 06:13:32;;;;;;;99.63;36.33;;;;;;;-7.23;61.43;100558.64;4047813;86;22102;-79
2022/03/12 06:19:41;;;;;;;98.20;35.78;;;;;;;-6.65;61.63;100552.59;4047604;86;21089;-79
2022/03/12 06:25:43;;;;;;;103.53;37.07;;;;;;;-5.74;61.64;100551.66;4046573;86;21053;-79
2022/03/12 06:31:44;;;;;;;82.27;33.30;;;;;;;-5.00;60.88;100550.38;4046110;86;21068;-80
2022/03/12 06:37:47;;;;;;;93.70;35.47;;;;;;;-4.07;60.28;100552.64;4049806;86;21086;-80
2022/03/12 06:43:52;;;;;;;96.50;34.63;;;;;;;-3.17;59.61;100557.20;4047628;86;21097;-80
2022/03/12 06:49:55;;;;;;;95.50;35.87;;;;;;;-2.49;58.64;100556.17;4047946;86;21084;-80
2022/03/12 06:55:58;;;;;;;84.80;33.90;;;;;;;-2.06;57.78;100550.69;4045369;86;21010;-82
2022/03/12 07:02:01;;;;;;;85.43;34.90;;;;;;;-1.69;57.36;100556.37;4045670;86;21628;-81
2022/03/12 07:08:02;;;;;;;71.07;30.93;;;;;;;-1.62;57.02;100560.18;4048821;86;21026;-81
2022/03/12 07:14:04;;;;;;;62.93;26.87;;;;;;;-1.47;56.83;100552.77;4044352;86;21054;-81
2022/03/12 07:20:12;;;;;;;74.83;33.83;;;;;;;-1.23;56.66;100564.20;4046702;86;21080;-81
2022/03/12 07:26:15;;;;;;;64.40;28.77;;;;;;;-1.17;56.65;100560.99;4044381;86;21050;-81
2022/03/12 07:32:16;;;;;;;63.57;25.67;;;;;;;-0.72;56.64;100556.64;4046647;87;21096;-82
2022/03/12 07:38:20;;;;;;;68.10;29.27;;;;;;;-0.35;56.07;100557.84;4048276;86;21029;-81
2022/03/12 07:44:23;;;;;;;60.67;25.37;;;;;;;0.07;56.02;100552.23;4046449;86;21117;-81
2022/03/12 07:57:42;;;;;;;60.15;24.18;;;;;;;0.60;55.41;100563.80;4043305;86;21149;-81
2022/03/12 08:03:43;;;;;;;49.20;21.40;;;;;;;1.40;54.37;100558.17;4042394;86;21044;-82
2022/03/12 08:09:45;;;;;;;32.85;15.20;;;;;;;1.90;51.41;100556.53;4042133;86;21079;-83
2022/03/12 08:15:46;;;;;;;28.57;12.80;;;;;;;1.93;52.44;100554.63;4045074;86;21039;-82
2022/03/12 08:21:49;;;;;;;32.33;12.73;;;;;;;2.58;51.87;100535.19;4043006;87;21061;-82
2022/03/12 08:27:51;;;;;;;29.72;12.75;;;;;;;3.23;51.24;100537.69;4043244;86;21157;-82
2022/03/12 08:33:52;;;;;;;29.72;13.90;;;;;;;3.68;51.52;100532.23;4040344;86;21096;-81
2022/03/12 08:39:54;;;;;;;26.23;12.60;;;;;;;3.64;50.66;100540.13;4036756;86;21137;-82
2022/03/12 08:46:07;;;;;;;27.27;12.40;;;;;;;3.80;50.83;100538.02;4042184;86;21144;-81
2022/03/12 08:52:09;;;;;;;19.80;10.65;;;;;;;4.06;48.64;100527.04;4038657;87;22013;-81
2022/03/12 08:58:10;;;;;;;18.40;8.98;;;;;;;4.65;49.13;100527.14;4041696;86;21060;-83
2022/03/12 09:04:12;;;;;;;21.05;10.30;;;;;;;6.23;48.38;100529.98;4039975;88;21079;-82
2022/03/12 09:10:16;;;;;;;21.80;10.32;;;;;;;7.22;45.82;100535.02;4028612;86;21049;-83
2022/03/12 09:16:18;;;;;;;19.37;9.83;;;;;;;7.84;46.41;100537.23;4035587;88;21046;-83
2022/03/12 09:22:20;;;;;;;17.42;10.43;;;;;;;8.46;45.92;100535.53;4033453;87;21026;-84
2022/03/12 09:28:22;;;;;;;16.35;8.63;;;;;;;8.74;44.34;100529.95;4032240;87;21101;-86
2022/03/12 09:34:29;;;;;;;16.40;8.63;;;;;;;9.06;44.44;100520.59;3958946;88;21102;-86
2022/03/12 09:40:48;;;;;;;15.60;9.20;;;;;;;9.33;42.48;100518.75;4027763;87;21065;-87
2022/03/12 09:53:56;;;;;;;16.60;7.95;;;;;;;9.24;39.94;100501.61;4032625;87;21089;-88
2022/03/12 10:08:19;;;;;;;15.80;8.23;;;;;;;10.13;31.88;100479.27;4036442;87;22050;-88
2022/03/12 10:21:59;;;;;;;14.58;8.18;;;;;;;11.07;35.87;100468.05;3933469;89;21041;-88
2022/03/12 10:28:04;;;;;;;14.63;7.72;;;;;;;11.22;36.18;100453.43;3937042;89;21096;-89
2022/03/12 10:34:48;;;;;;;15.20;8.78;;;;;;;11.60;35.38;100451.09;3930341;89;21123;-90
2022/03/12 10:40:58;;;;;;;13.75;8.28;;;;;;;12.41;34.58;100439.94;3924817;89;21636;-89
2022/03/12 10:54:42;;;;;;;14.95;9.43;;;;;;;11.91;30.05;100427.37;3947438;89;21141;-89
2022/03/12 11:00:51;;;;;;;20.50;11.08;;;;;;;12.41;32.08;100413.03;3947043;89;21546;-89
2022/03/12 11:20:38;;;;;;;15.48;9.33;;;;;;;12.25;31.27;100392.99;3858645;91;21121;-89
2022/03/12 11:27:49;;;;;;;19.00;11.05;;;;;;;12.43;29.79;100381.31;3863087;91;21236;-89
2022/03/12 11:33:57;;;;;;;;;;;;;;;12.22;29.28;100378.03;3908346;89;21606;-87
2022/03/12 11:40:17;;;;;;;21.77;12.55;;;;;;;11.07;28.10;100375.47;4098507;85;20147;-88
2022/03/12 11:46:27;;;;;;;20.37;12.03;;;;;;;11.47;28.86;100371.36;4063678;87;21038;-87
2022/03/12 11:52:48;;;;;;;18.12;10.10;;;;;;;11.38;29.04;100356.44;4039215;87;21131;-87
2022/03/12 11:59:18;;;;;;;16.95;9.90;;;;;;;11.22;28.98;100346.53;4024932;87;21137;-87
2022/03/12 12:05:30;;;;;;;20.43;11.50;;;;;;;10.83;27.57;100343.98;4040527;88;21068;-88
2022/03/12 12:18:29;;;;;;;22.85;11.00;;;;;;;10.33;27.67;100333.94;4051240;87;21123;-88
2022/03/12 12:24:59;;;;;;;17.45;9.10;;;;;;;9.67;26.62;100328.28;4030392;87;21171;-87
2022/03/12 12:31:11;;;;;;;18.87;11.28;;;;;;;9.74;26.08;100319.76;4047869;87;21116;-89
2022/03/12 12:44:49;;;;;;;20.33;11.17;;;;;;;9.42;27.19;100310.44;4033770;87;21057;-89
2022/03/12 13:13:09;;;;;;;15.08;8.70;;;;;;;9.00;26.22;100284.84;3806698;91;21136;-88
2022/03/12 13:19:28;;;;;;;19.73;10.28;;;;;;;8.92;26.11;100281.05;3855030;89;21079;-89
2022/03/12 13:32:32;;;;;;;20.02;9.55;;;;;;;8.62;25.25;100279.48;4035413;88;21590;-87
2022/03/12 13:38:59;;;;;;;18.40;11.22;;;;;;;8.60;25.80;100275.47;4033883;88;21046;-88
2022/03/12 13:52:34;;;;;;;16.60;7.90;;;;;;;8.44;25.79;100264.33;4036815;87;21067;-88
2022/03/12 13:58:46;;;;;;;14.65;7.53;;;;;;;8.34;25.78;100253.81;3914774;90;21148;-88
2022/03/12 14:05:28;;;;;;;12.47;7.17;;;;;;;8.31;25.82;100250.94;3936720;90;21089;-88
2022/03/12 14:11:57;;;;;;;13.77;6.37;;;;;;;8.17;25.63;100239.43;3932439;89;21143;-88
2022/03/12 14:18:25;;;;;;;11.25;5.90;;;;;;;8.04;25.75;100224.89;3898011;88;21098;-88
2022/03/12 14:24:46;;;;;;;11.28;6.40;;;;;;;7.99;25.62;100214.16;3964166;89;21508;-89
2022/03/12 14:31:12;;;;;;;15.40;6.85;;;;;;;7.89;25.04;100211.23;3962247;89;21712;-87
2022/03/12 14:37:19;;;;;;;13.18;6.78;;;;;;;8.01;24.99;100209.19;3960414;89;21063;-88
2022/03/12 14:43:45;;;;;;;11.60;6.35;;;;;;;8.02;24.84;100208.05;3910643;89;21032;-87
2022/03/12 14:49:54;;;;;;;11.03;6.35;;;;;;;7.84;24.65;100207.36;3937143;90;21049;-88
2022/03/12 14:56:00;;;;;;;14.33;7.42;;;;;;;7.74;24.82;100202.26;3935196;89;21128;-87
2022/03/12 15:30:36;;;;;;;21.17;10.00;;;;;;;7.01;25.57;100190.91;3936248;84;10000813;-87
2022/03/12 15:52:22;;;;;;;19.05;8.70;;;;;;;6.29;26.06;100181.23;3944312;89;21546;-88
2022/03/12 16:39:22;;;;;;;28.85;11.80;;;;;;;4.67;26.24;100177.72;4053064;86;21084;-87
2022/03/12 16:45:29;;;;;;;13.48;6.00;;;;;;;4.40;26.31;100180.55;4045086;86;21100;-87
2022/03/12 16:51:43;;;;;;;14.85;6.42;;;;;;;4.12;26.48;100170.30;4051048;87;21534;-87
2022/03/12 16:58:14;;;;;;;16.93;7.65;;;;;;;3.86;26.64;100170.59;4040425;87;20990;-86
2022/03/12 17:04:46;;;;;;;26.15;13.53;;;;;;;3.48;26.89;100166.47;4045735;87;21037;-87
2022/03/12 17:32:03;;;;;;;47.78;17.85;;;;;;;1.80;28.47;100167.02;3911579;87;10001146;-86
2022/03/12 18:18:53;;;;;;;74.27;29.27;;;;;;;-0.41;31.55;100179.01;4021208;87;21063;-86
2022/03/12 18:45:28;;;;;;;81.57;30.65;;;;;;;-0.93;33.44;100187.22;4063666;86;21000;-85
2022/03/12 19:05:36;;;;;;;87.20;31.93;;;;;;;-1.33;34.80;100189.37;3861298;91;21963;-86
2022/03/12 19:11:38;;;;;;;78.43;31.43;;;;;;;-1.46;35.37;100185.90;3889003;90;21106;-86
2022/03/12 19:17:52;;;;;;;77.30;29.80;;;;;;;-1.53;35.88;100185.34;3911849;90;21057;-86
2022/03/12 19:24:22;;;;;;;83.17;31.93;;;;;;;-1.60;37.24;100172.17;3833450;92;21153;-86
2022/03/12 19:51:26;;;;;;;78.83;30.53;;;;;;;-2.29;37.79;100180.34;4064815;87;21069;-85
2022/03/12 19:57:28;;;;;;;84.07;30.70;;;;;;;-2.36;38.47;100181.62;4064783;87;21077;-86
2022/03/12 20:03:29;;;;;;;99.57;35.30;;;;;;;-2.43;38.87;100180.55;4065951;87;21610;-85
2022/03/12 20:16:57;;;;;;;121.27;44.33;;;;;;;-2.81;39.02;100197.48;4063694;87;22025;-85
2022/03/12 20:30:11;;;;;;;118.93;40.23;;;;;;;-3.06;39.17;100187.94;4001381;87;21065;-85
2022/03/12 20:36:24;;;;;;;127.60;41.70;;;;;;;-3.05;38.84;100182.32;4065746;86;21008;-84
2022/03/12 20:42:34;;;;;;;147.50;46.67;;;;;;;-3.01;41.51;100186.64;4062579;86;21110;-84
2022/03/12 20:48:36;;;;;;;141.17;47.20;;;;;;;-3.20;40.96;100187.58;4035726;87;21124;-85
2022/03/12 20:54:37;;;;;;;140.63;48.17;;;;;;;-3.31;40.94;100188.05;4032623;86;21082;-84
2022/03/12 21:00:39;;;;;;;158.43;57.73;;;;;;;-3.45;42.05;100184.70;4033206;87;21500;-83
2022/03/12 21:06:40;;;;;;;167.77;56.80;;;;;;;-3.47;42.16;100185.48;4036297;87;21661;-83
2022/03/12 21:12:42;;;;;;;177.80;58.33;;;;;;;-3.58;42.27;100182.44;4035138;87;20989;-82
2022/03/12 21:18:44;;;;;;;138.43;50.17;;;;;;;-3.64;42.82;100174.09;4034672;88;21490;-82
2022/03/12 21:24:45;;;;;;;157.97;57.23;;;;;;;-3.78;42.60;100176.90;4034003;87;20987;-81
2022/03/12 21:30:48;;;;;;;147.90;56.80;;;;;;;-3.88;42.97;100177.60;4035463;87;21617;-85
2022/03/12 21:36:50;;;;;;;175.37;61.67;;;;;;;-3.79;44.05;100175.30;4035053;87;21056;-81
2022/03/12 21:42:53;;;;;;;184.80;65.70;;;;;;;-3.85;44.15;100171.75;4034343;87;21693;-81
2022/03/12 21:48:54;;;;;;;178.97;65.33;;;;;;;-4.00;42.57;100169.45;4035774;86;21038;-81
2022/03/12 21:55:00;;;;;;;193.47;71.67;;;;;;;-4.16;43.93;100167.14;4032313;87;21053;-80
2022/03/12 22:01:07;;;;;;;208.75;72.70;;;;;;;-4.14;45.26;100161.55;4032945;88;21098;-81
2022/03/12 22:07:10;;;;;;;176.60;66.43;;;;;;;-4.19;45.10;100163.64;4031720;87;21104;-80
2022/03/12 22:13:15;;;;;;;176.80;65.67;;;;;;;-4.27;45.07;100153.38;4031648;87;21084;-80
2022/03/12 22:19:17;;;;;;;157.37;61.43;;;;;;;-4.39;45.27;100155.39;4016644;87;21053;-80
2022/03/12 22:25:18;;;;;;;174.30;64.47;;;;;;;-4.54;45.41;100157.08;4032267;87;21044;-80
2022/03/12 22:31:20;;;;;;;159.87;62.20;;;;;;;-4.63;45.69;100153.20;4032362;87;21096;-80
2022/03/12 22:37:31;;;;;;;162.07;63.53;;;;;;;-4.62;46.30;100150.31;4033754;87;21114;-81
2022/03/12 22:43:35;;;;;;;157.13;61.50;;;;;;;-4.67;46.91;100147.56;4034042;87;21595;-81
2022/03/12 22:49:37;;;;;;;147.00;56.47;;;;;;;-4.66;47.65;100145.69;4033865;87;21050;-81
2022/03/12 22:55:39;;;;;;;134.47;53.30;;;;;;;-4.87;46.59;100133.41;4031859;87;22049;-80
2022/03/12 23:02:03;;;;;;;141.40;54.17;;;;;;;-4.98;47.33;100130.87;4030255;87;21567;-81
2022/03/12 23:14:51;;;;;;;146.57;54.00;;;;;;;-5.11;48.83;100129.36;4035270;87;20981;-81
2022/03/12 23:20:52;;;;;;;132.37;50.80;;;;;;;-4.99;49.04;100142.58;4032730;87;21576;-81
2022/03/12 23:26:54;;;;;;;140.00;52.90;;;;;;;-4.97;50.32;100138.63;4035670;87;21001;-82
2022/03/12 23:32:57;;;;;;;135.93;52.23;;;;;;;-4.98;49.49;100138.33;4033587;87;21566;-81
2022/03/12 23:45:52;;;;;;;162.07;59.37;;;;;;;-4.86;50.43;100143.57;4036100;87;22038;-81
2022/03/12 23:59:34;;;;;;;181.70;65.07;;;;;;;-5.22;50.92;100146.80;4007661;87;20998;-82
